sensor_id;sensor_type;location;lat;lon;timestamp;P1;durP1;ratioP1;P2;durP2;ratioP2
69434;SDS011;56625;54.322;18.582;2023-05-10T00:00:14;11.60;;;4.10;;
69434;SDS011;56625;54.322;18.582;2023-05-10T00:03:02;9.70;;;3.50;;
69434;SDS011;56625;54.322;18.582;2023-05-10T00:05:32;10.10;;;3.40;;
69434;SDS011;56625;54.322;18.582;2023-05-10T00:08:00;9.70;;;3.70;;
69434;SDS011;56625;54.322;18.582;2023-05-10T00:10:27;8.90;;;3.60;;
69434;SDS011;56625;54.322;18.582;2023-05-10T00:12:55;9.40;;;3.60;;
69434;SDS011;56625;54.322;18.582;2023-05-10T00:15:23;10.90;;;4.00;;
69434;SDS011;56625;54.322;18.582;2023-05-10T00:17:51;11.00;;;3.70;;
69434;SDS011;56625;54.322;18.582;2023-05-10T00:20:19;9.90;;;3.60;;
69434;SDS011;56625;54.322;18.582;2023-05-10T00:22:47;10.50;;;3.60;;
69434;SDS011;56625;54.322;18.582;2023-05-10T00:25:15;9.70;;;3.60;;
69434;SDS011;56625;54.322;18.582;2023-05-10T00:27:43;9.60;;;3.30;;
69434;SDS011;56625;54.322;18.582;2023-05-10T00:30:10;11.20;;;3.50;;
69434;SDS011;56625;54.322;18.582;2023-05-10T00:32:38;7.90;;;3.10;;
69434;SDS011;56625;54.322;18.582;2023-05-10T00:35:07;9.00;;;3.30;;
69434;SDS011;56625;54.322;18.582;2023-05-10T00:37:35;10.30;;;3.40;;
69434;SDS011;56625;54.322;18.582;2023-05-10T00:40:04;10.00;;;3.10;;
69434;SDS011;56625;54.322;18.582;2023-05-10T00:42:33;10.30;;;3.30;;
69434;SDS011;56625;54.322;18.582;2023-05-10T00:45:01;8.30;;;3.20;;
69434;SDS011;56625;54.322;18.582;2023-05-10T00:47:29;12.70;;;3.30;;
69434;SDS011;56625;54.322;18.582;2023-05-10T00:49:57;11.80;;;3.50;;
69434;SDS011;56625;54.322;18.582;2023-05-10T00:52:26;17.90;;;3.90;;
69434;SDS011;56625;54.322;18.582;2023-05-10T00:54:56;13.40;;;4.00;;
69434;SDS011;56625;54.322;18.582;2023-05-10T00:57:24;16.50;;;3.80;;
69434;SDS011;56625;54.322;18.582;2023-05-10T00:59:53;11.50;;;3.60;;
69434;SDS011;56625;54.322;18.582;2023-05-10T01:02:21;10.20;;;3.00;;
69434;SDS011;56625;54.322;18.582;2023-05-10T01:04:49;10.90;;;3.40;;
69434;SDS011;56625;54.322;18.582;2023-05-10T01:07:17;8.70;;;3.00;;
69434;SDS011;56625;54.322;18.582;2023-05-10T01:09:45;8.00;;;3.20;;
69434;SDS011;56625;54.322;18.582;2023-05-10T01:12:14;8.70;;;2.90;;
69434;SDS011;56625;54.322;18.582;2023-05-10T01:14:42;8.70;;;3.30;;
69434;SDS011;56625;54.322;18.582;2023-05-10T01:17:11;8.90;;;3.60;;
69434;SDS011;56625;54.322;18.582;2023-05-10T01:19:40;8.30;;;3.00;;
69434;SDS011;56625;54.322;18.582;2023-05-10T01:26:24;8.50;;;3.10;;
69434;SDS011;56625;54.322;18.582;2023-05-10T01:29:36;10.20;;;3.40;;
69434;SDS011;56625;54.322;18.582;2023-05-10T01:36:13;10.30;;;3.50;;
69434;SDS011;56625;54.322;18.582;2023-05-10T01:39:24;10.30;;;3.20;;
69434;SDS011;56625;54.322;18.582;2023-05-10T01:44:58;9.00;;;3.50;;
69434;SDS011;56625;54.322;18.582;2023-05-10T01:47:46;10.80;;;3.70;;
69434;SDS011;56625;54.322;18.582;2023-05-10T01:50:27;9.30;;;3.60;;
69434;SDS011;56625;54.322;18.582;2023-05-10T01:52:59;8.30;;;3.30;;
69434;SDS011;56625;54.322;18.582;2023-05-10T01:55:31;10.30;;;3.70;;
69434;SDS011;56625;54.322;18.582;2023-05-10T01:58:09;9.70;;;3.90;;
69434;SDS011;56625;54.322;18.582;2023-05-10T02:00:43;10.20;;;4.00;;
69434;SDS011;56625;54.322;18.582;2023-05-10T02:03:14;14.40;;;4.00;;
69434;SDS011;56625;54.322;18.582;2023-05-10T02:05:45;10.70;;;3.80;;
69434;SDS011;56625;54.322;18.582;2023-05-10T02:08:17;12.30;;;3.60;;
69434;SDS011;56625;54.322;18.582;2023-05-10T02:10:46;13.50;;;3.90;;
69434;SDS011;56625;54.322;18.582;2023-05-10T02:13:18;8.30;;;3.70;;
69434;SDS011;56625;54.322;18.582;2023-05-10T02:15:48;10.20;;;3.60;;
69434;SDS011;56625;54.322;18.582;2023-05-10T02:18:18;7.80;;;3.60;;
69434;SDS011;56625;54.322;18.582;2023-05-10T02:20:46;10.40;;;3.60;;
69434;SDS011;56625;54.322;18.582;2023-05-10T02:23:16;10.40;;;3.40;;
69434;SDS011;56625;54.322;18.582;2023-05-10T02:25:46;10.10;;;4.00;;
69434;SDS011;56625;54.322;18.582;2023-05-10T02:28:18;12.60;;;3.90;;
69434;SDS011;56625;54.322;18.582;2023-05-10T02:30:47;11.80;;;4.10;;
69434;SDS011;56625;54.322;18.582;2023-05-10T02:33:16;13.90;;;4.00;;
69434;SDS011;56625;54.322;18.582;2023-05-10T02:35:46;11.40;;;3.90;;
69434;SDS011;56625;54.322;18.582;2023-05-10T02:38:16;9.70;;;3.60;;
69434;SDS011;56625;54.322;18.582;2023-05-10T02:40:47;12.90;;;3.80;;
69434;SDS011;56625;54.322;18.582;2023-05-10T02:43:16;8.90;;;3.60;;
69434;SDS011;56625;54.322;18.582;2023-05-10T02:45:47;8.00;;;3.40;;
69434;SDS011;56625;54.322;18.582;2023-05-10T02:48:16;8.50;;;3.60;;
69434;SDS011;56625;54.322;18.582;2023-05-10T02:50:45;11.50;;;3.60;;
69434;SDS011;56625;54.322;18.582;2023-05-10T02:53:23;10.50;;;3.90;;
69434;SDS011;56625;54.322;18.582;2023-05-10T02:56:01;9.60;;;3.90;;
69434;SDS011;56625;54.322;18.582;2023-05-10T02:58:34;9.00;;;3.60;;
69434;SDS011;56625;54.322;18.582;2023-05-10T03:01:03;10.40;;;3.60;;
69434;SDS011;56625;54.322;18.582;2023-05-10T03:03:31;9.10;;;3.20;;
69434;SDS011;56625;54.322;18.582;2023-05-10T03:05:59;9.40;;;3.60;;
69434;SDS011;56625;54.322;18.582;2023-05-10T03:08:27;9.90;;;3.50;;
69434;SDS011;56625;54.322;18.582;2023-05-10T03:11:13;9.70;;;3.90;;
69434;SDS011;56625;54.322;18.582;2023-05-10T03:14:07;16.50;;;3.70;;
69434;SDS011;56625;54.322;18.582;2023-05-10T03:16:45;8.10;;;3.20;;
69434;SDS011;56625;54.322;18.582;2023-05-10T03:19:27;9.90;;;3.70;;
69434;SDS011;56625;54.322;18.582;2023-05-10T03:22:08;11.50;;;3.70;;
69434;SDS011;56625;54.322;18.582;2023-05-10T03:24:40;10.80;;;3.90;;
69434;SDS011;56625;54.322;18.582;2023-05-10T03:27:10;9.90;;;3.90;;
69434;SDS011;56625;54.322;18.582;2023-05-10T03:29:38;9.50;;;3.80;;
69434;SDS011;56625;54.322;18.582;2023-05-10T03:32:07;10.00;;;3.40;;
69434;SDS011;56625;54.322;18.582;2023-05-10T03:34:41;8.70;;;3.20;;
69434;SDS011;56625;54.322;18.582;2023-05-10T03:37:11;9.50;;;3.60;;
69434;SDS011;56625;54.322;18.582;2023-05-10T03:39:38;10.20;;;3.20;;
69434;SDS011;56625;54.322;18.582;2023-05-10T03:42:06;12.30;;;4.10;;
69434;SDS011;56625;54.322;18.582;2023-05-10T03:44:34;12.20;;;4.00;;
69434;SDS011;56625;54.322;18.582;2023-05-10T03:47:02;12.80;;;3.70;;
69434;SDS011;56625;54.322;18.582;2023-05-10T03:49:30;9.70;;;3.80;;
69434;SDS011;56625;54.322;18.582;2023-05-10T03:51:58;8.80;;;3.30;;
69434;SDS011;56625;54.322;18.582;2023-05-10T03:54:25;9.50;;;3.90;;
69434;SDS011;56625;54.322;18.582;2023-05-10T03:56:53;10.20;;;3.60;;
69434;SDS011;56625;54.322;18.582;2023-05-10T03:59:21;9.90;;;4.10;;
69434;SDS011;56625;54.322;18.582;2023-05-10T04:01:49;10.30;;;4.10;;
69434;SDS011;56625;54.322;18.582;2023-05-10T04:04:17;10.30;;;3.70;;
69434;SDS011;56625;54.322;18.582;2023-05-10T04:06:46;8.80;;;3.60;;
69434;SDS011;56625;54.322;18.582;2023-05-10T04:09:14;10.30;;;3.70;;
69434;SDS011;56625;54.322;18.582;2023-05-10T04:11:42;9.90;;;3.70;;
69434;SDS011;56625;54.322;18.582;2023-05-10T04:14:10;10.10;;;3.80;;
69434;SDS011;56625;54.322;18.582;2023-05-10T04:16:38;9.10;;;4.00;;
69434;SDS011;56625;54.322;18.582;2023-05-10T04:19:06;10.00;;;4.00;;
69434;SDS011;56625;54.322;18.582;2023-05-10T04:21:34;11.60;;;4.20;;
69434;SDS011;56625;54.322;18.582;2023-05-10T04:24:03;9.20;;;4.10;;
69434;SDS011;56625;54.322;18.582;2023-05-10T04:26:31;10.70;;;4.40;;
69434;SDS011;56625;54.322;18.582;2023-05-10T04:28:59;10.80;;;4.10;;
69434;SDS011;56625;54.322;18.582;2023-05-10T04:31:27;8.80;;;3.70;;
69434;SDS011;56625;54.322;18.582;2023-05-10T04:33:55;9.40;;;3.80;;
69434;SDS011;56625;54.322;18.582;2023-05-10T04:36:23;10.10;;;4.50;;
69434;SDS011;56625;54.322;18.582;2023-05-10T04:38:52;9.80;;;4.10;;
69434;SDS011;56625;54.322;18.582;2023-05-10T04:41:20;10.30;;;3.90;;
69434;SDS011;56625;54.322;18.582;2023-05-10T04:43:48;9.60;;;3.80;;
69434;SDS011;56625;54.322;18.582;2023-05-10T04:46:16;10.20;;;3.70;;
69434;SDS011;56625;54.322;18.582;2023-05-10T04:48:44;8.80;;;3.50;;
69434;SDS011;56625;54.322;18.582;2023-05-10T04:51:12;8.70;;;3.70;;
69434;SDS011;56625;54.322;18.582;2023-05-10T04:53:41;9.00;;;3.60;;
69434;SDS011;56625;54.322;18.582;2023-05-10T04:56:17;11.50;;;3.90;;
69434;SDS011;56625;54.322;18.582;2023-05-10T04:58:45;8.30;;;3.80;;
69434;SDS011;56625;54.322;18.582;2023-05-10T05:01:13;9.80;;;3.60;;
69434;SDS011;56625;54.322;18.582;2023-05-10T05:03:41;8.90;;;4.00;;
69434;SDS011;56625;54.322;18.582;2023-05-10T05:06:10;9.90;;;3.80;;
69434;SDS011;56625;54.322;18.582;2023-05-10T05:08:38;9.70;;;3.70;;
69434;SDS011;56625;54.322;18.582;2023-05-10T05:11:06;10.10;;;3.90;;
69434;SDS011;56625;54.322;18.582;2023-05-10T05:13:34;10.90;;;4.40;;
69434;SDS011;56625;54.322;18.582;2023-05-10T05:16:02;12.00;;;3.70;;
69434;SDS011;56625;54.322;18.582;2023-05-10T05:18:30;10.00;;;4.00;;
69434;SDS011;56625;54.322;18.582;2023-05-10T05:20:58;7.50;;;3.40;;
69434;SDS011;56625;54.322;18.582;2023-05-10T05:23:26;12.30;;;3.60;;
69434;SDS011;56625;54.322;18.582;2023-05-10T05:25:54;10.50;;;4.20;;
69434;SDS011;56625;54.322;18.582;2023-05-10T05:28:22;10.50;;;4.00;;
69434;SDS011;56625;54.322;18.582;2023-05-10T05:30:50;8.90;;;4.00;;
69434;SDS011;56625;54.322;18.582;2023-05-10T05:33:18;9.30;;;3.30;;
69434;SDS011;56625;54.322;18.582;2023-05-10T05:35:46;11.70;;;3.60;;
69434;SDS011;56625;54.322;18.582;2023-05-10T05:38:18;10.90;;;3.60;;
69434;SDS011;56625;54.322;18.582;2023-05-10T05:40:46;10.10;;;3.70;;
69434;SDS011;56625;54.322;18.582;2023-05-10T05:43:14;10.70;;;3.40;;
69434;SDS011;56625;54.322;18.582;2023-05-10T05:45:42;11.20;;;3.30;;
69434;SDS011;56625;54.322;18.582;2023-05-10T05:48:10;8.10;;;3.50;;
69434;SDS011;56625;54.322;18.582;2023-05-10T05:50:38;10.30;;;3.60;;
69434;SDS011;56625;54.322;18.582;2023-05-10T05:53:05;9.90;;;3.80;;
69434;SDS011;56625;54.322;18.582;2023-05-10T05:55:33;9.00;;;3.90;;
69434;SDS011;56625;54.322;18.582;2023-05-10T05:58:01;10.30;;;3.60;;
69434;SDS011;56625;54.322;18.582;2023-05-10T06:00:30;10.40;;;3.90;;
69434;SDS011;56625;54.322;18.582;2023-05-10T06:02:57;10.40;;;4.10;;
69434;SDS011;56625;54.322;18.582;2023-05-10T06:05:26;10.70;;;3.90;;
69434;SDS011;56625;54.322;18.582;2023-05-10T06:07:53;9.50;;;3.90;;
69434;SDS011;56625;54.322;18.582;2023-05-10T06:10:22;10.30;;;4.00;;
69434;SDS011;56625;54.322;18.582;2023-05-10T06:12:50;9.30;;;3.00;;
69434;SDS011;56625;54.322;18.582;2023-05-10T06:15:18;8.90;;;3.40;;
69434;SDS011;56625;54.322;18.582;2023-05-10T06:17:46;10.40;;;3.60;;
69434;SDS011;56625;54.322;18.582;2023-05-10T06:20:15;8.70;;;3.80;;
69434;SDS011;56625;54.322;18.582;2023-05-10T06:22:44;12.10;;;3.70;;
69434;SDS011;56625;54.322;18.582;2023-05-10T06:25:12;10.30;;;4.20;;
69434;SDS011;56625;54.322;18.582;2023-05-10T06:27:40;10.50;;;3.90;;
69434;SDS011;56625;54.322;18.582;2023-05-10T06:30:08;9.60;;;3.60;;
69434;SDS011;56625;54.322;18.582;2023-05-10T06:32:40;7.50;;;3.30;;
69434;SDS011;56625;54.322;18.582;2023-05-10T06:35:09;9.00;;;2.40;;
69434;SDS011;56625;54.322;18.582;2023-05-10T06:37:37;7.50;;;3.10;;
69434;SDS011;56625;54.322;18.582;2023-05-10T06:40:06;10.60;;;3.20;;
69434;SDS011;56625;54.322;18.582;2023-05-10T06:42:34;9.90;;;3.10;;
69434;SDS011;56625;54.322;18.582;2023-05-10T06:45:02;14.00;;;3.40;;
69434;SDS011;56625;54.322;18.582;2023-05-10T06:47:30;9.10;;;3.10;;
69434;SDS011;56625;54.322;18.582;2023-05-10T06:49:59;8.10;;;2.80;;
69434;SDS011;56625;54.322;18.582;2023-05-10T06:52:27;9.20;;;2.90;;
69434;SDS011;56625;54.322;18.582;2023-05-10T06:54:55;10.60;;;3.50;;
69434;SDS011;56625;54.322;18.582;2023-05-10T06:57:23;12.20;;;3.10;;
69434;SDS011;56625;54.322;18.582;2023-05-10T06:59:58;8.30;;;3.40;;
69434;SDS011;56625;54.322;18.582;2023-05-10T07:02:26;7.40;;;2.60;;
69434;SDS011;56625;54.322;18.582;2023-05-10T07:04:55;7.10;;;2.50;;
69434;SDS011;56625;54.322;18.582;2023-05-10T07:07:24;8.80;;;3.00;;
69434;SDS011;56625;54.322;18.582;2023-05-10T07:09:52;7.20;;;2.80;;
69434;SDS011;56625;54.322;18.582;2023-05-10T07:12:19;8.80;;;2.50;;
69434;SDS011;56625;54.322;18.582;2023-05-10T07:14:47;6.80;;;2.80;;
69434;SDS011;56625;54.322;18.582;2023-05-10T07:17:15;10.80;;;3.50;;
69434;SDS011;56625;54.322;18.582;2023-05-10T07:19:43;12.20;;;2.80;;
69434;SDS011;56625;54.322;18.582;2023-05-10T07:22:11;9.80;;;2.90;;
69434;SDS011;56625;54.322;18.582;2023-05-10T07:24:40;8.50;;;2.60;;
69434;SDS011;56625;54.322;18.582;2023-05-10T07:27:08;9.40;;;2.70;;
69434;SDS011;56625;54.322;18.582;2023-05-10T07:29:36;9.30;;;2.90;;
69434;SDS011;56625;54.322;18.582;2023-05-10T07:32:06;8.40;;;2.70;;
69434;SDS011;56625;54.322;18.582;2023-05-10T07:34:33;8.50;;;2.40;;
69434;SDS011;56625;54.322;18.582;2023-05-10T07:37:01;7.70;;;2.70;;
69434;SDS011;56625;54.322;18.582;2023-05-10T07:39:29;7.90;;;2.40;;
69434;SDS011;56625;54.322;18.582;2023-05-10T07:41:57;8.10;;;2.60;;
69434;SDS011;56625;54.322;18.582;2023-05-10T07:44:25;8.00;;;2.40;;
69434;SDS011;56625;54.322;18.582;2023-05-10T07:46:53;10.00;;;2.50;;
69434;SDS011;56625;54.322;18.582;2023-05-10T07:49:21;10.00;;;2.30;;
69434;SDS011;56625;54.322;18.582;2023-05-10T07:51:51;8.30;;;2.30;;
69434;SDS011;56625;54.322;18.582;2023-05-10T07:54:19;8.40;;;2.40;;
69434;SDS011;56625;54.322;18.582;2023-05-10T07:56:47;6.80;;;2.40;;
69434;SDS011;56625;54.322;18.582;2023-05-10T07:59:16;7.60;;;2.40;;
69434;SDS011;56625;54.322;18.582;2023-05-10T08:01:44;7.50;;;1.70;;
69434;SDS011;56625;54.322;18.582;2023-05-10T08:04:12;8.30;;;1.80;;
69434;SDS011;56625;54.322;18.582;2023-05-10T08:06:40;5.50;;;1.90;;
69434;SDS011;56625;54.322;18.582;2023-05-10T08:09:09;6.60;;;2.10;;
69434;SDS011;56625;54.322;18.582;2023-05-10T08:11:37;9.60;;;2.10;;
69434;SDS011;56625;54.322;18.582;2023-05-10T08:14:05;10.90;;;2.40;;
69434;SDS011;56625;54.322;18.582;2023-05-10T08:16:32;11.00;;;2.20;;
69434;SDS011;56625;54.322;18.582;2023-05-10T08:19:00;7.70;;;2.40;;
69434;SDS011;56625;54.322;18.582;2023-05-10T08:21:29;5.10;;;1.60;;
69434;SDS011;56625;54.322;18.582;2023-05-10T08:23:56;7.80;;;2.10;;
69434;SDS011;56625;54.322;18.582;2023-05-10T08:26:25;9.10;;;1.90;;
69434;SDS011;56625;54.322;18.582;2023-05-10T08:28:53;7.50;;;2.50;;
69434;SDS011;56625;54.322;18.582;2023-05-10T08:31:21;8.10;;;2.30;;
69434;SDS011;56625;54.322;18.582;2023-05-10T08:33:49;4.30;;;1.30;;
69434;SDS011;56625;54.322;18.582;2023-05-10T08:36:19;8.40;;;1.80;;
69434;SDS011;56625;54.322;18.582;2023-05-10T08:38:51;9.00;;;1.80;;
69434;SDS011;56625;54.322;18.582;2023-05-10T08:41:20;9.20;;;2.00;;
69434;SDS011;56625;54.322;18.582;2023-05-10T08:43:50;7.40;;;1.80;;
69434;SDS011;56625;54.322;18.582;2023-05-10T08:46:19;7.00;;;1.70;;
69434;SDS011;56625;54.322;18.582;2023-05-10T08:48:50;9.60;;;2.10;;
69434;SDS011;56625;54.322;18.582;2023-05-10T08:51:23;5.10;;;1.30;;
69434;SDS011;56625;54.322;18.582;2023-05-10T08:53:54;8.40;;;2.00;;
69434;SDS011;56625;54.322;18.582;2023-05-10T08:56:23;8.00;;;1.70;;
69434;SDS011;56625;54.322;18.582;2023-05-10T08:58:51;11.20;;;1.70;;
69434;SDS011;56625;54.322;18.582;2023-05-10T09:01:20;8.70;;;1.90;;
69434;SDS011;56625;54.322;18.582;2023-05-10T09:03:50;33.30;;;4.30;;
69434;SDS011;56625;54.322;18.582;2023-05-10T09:06:18;13.50;;;2.00;;
69434;SDS011;56625;54.322;18.582;2023-05-10T09:08:46;11.00;;;2.00;;
69434;SDS011;56625;54.322;18.582;2023-05-10T09:11:16;8.00;;;1.60;;
69434;SDS011;56625;54.322;18.582;2023-05-10T09:13:45;11.10;;;2.40;;
69434;SDS011;56625;54.322;18.582;2023-05-10T09:16:15;8.80;;;1.60;;
69434;SDS011;56625;54.322;18.582;2023-05-10T09:18:48;8.30;;;1.80;;
69434;SDS011;56625;54.322;18.582;2023-05-10T09:21:19;9.30;;;1.70;;
69434;SDS011;56625;54.322;18.582;2023-05-10T09:23:48;10.30;;;1.80;;
69434;SDS011;56625;54.322;18.582;2023-05-10T09:26:22;8.90;;;1.70;;
69434;SDS011;56625;54.322;18.582;2023-05-10T09:28:55;6.80;;;1.90;;
69434;SDS011;56625;54.322;18.582;2023-05-10T09:31:43;15.40;;;2.20;;
69434;SDS011;56625;54.322;18.582;2023-05-10T09:34:19;10.10;;;2.20;;
69434;SDS011;56625;54.322;18.582;2023-05-10T09:36:51;8.80;;;2.30;;
69434;SDS011;56625;54.322;18.582;2023-05-10T09:39:30;10.70;;;1.70;;
69434;SDS011;56625;54.322;18.582;2023-05-10T09:42:07;9.50;;;2.10;;
69434;SDS011;56625;54.322;18.582;2023-05-10T09:44:36;5.80;;;1.30;;
69434;SDS011;56625;54.322;18.582;2023-05-10T09:47:05;9.20;;;2.10;;
69434;SDS011;56625;54.322;18.582;2023-05-10T09:49:34;8.80;;;2.10;;
69434;SDS011;56625;54.322;18.582;2023-05-10T09:52:06;10.40;;;2.40;;
69434;SDS011;56625;54.322;18.582;2023-05-10T09:54:35;13.70;;;2.00;;
69434;SDS011;56625;54.322;18.582;2023-05-10T09:57:03;9.60;;;1.80;;
69434;SDS011;56625;54.322;18.582;2023-05-10T09:59:32;7.90;;;2.00;;
69434;SDS011;56625;54.322;18.582;2023-05-10T10:02:02;4.90;;;1.50;;
69434;SDS011;56625;54.322;18.582;2023-05-10T10:04:32;6.10;;;1.70;;
69434;SDS011;56625;54.322;18.582;2023-05-10T10:07:07;9.20;;;2.00;;
69434;SDS011;56625;54.322;18.582;2023-05-10T10:09:35;8.90;;;2.40;;
69434;SDS011;56625;54.322;18.582;2023-05-10T10:12:03;8.00;;;1.70;;
69434;SDS011;56625;54.322;18.582;2023-05-10T10:14:32;18.20;;;2.20;;
69434;SDS011;56625;54.322;18.582;2023-05-10T10:17:01;9.30;;;1.90;;
69434;SDS011;56625;54.322;18.582;2023-05-10T10:19:35;12.90;;;2.20;;
69434;SDS011;56625;54.322;18.582;2023-05-10T10:22:05;9.50;;;1.60;;
69434;SDS011;56625;54.322;18.582;2023-05-10T10:24:33;9.50;;;2.30;;
69434;SDS011;56625;54.322;18.582;2023-05-10T10:27:14;9.10;;;1.90;;
69434;SDS011;56625;54.322;18.582;2023-05-10T10:30:06;10.90;;;1.90;;
69434;SDS011;56625;54.322;18.582;2023-05-10T10:36:02;7.70;;;1.80;;
69434;SDS011;56625;54.322;18.582;2023-05-10T10:41:33;6.40;;;1.50;;
69434;SDS011;56625;54.322;18.582;2023-05-10T10:55:02;5.70;;;1.60;;
69434;SDS011;56625;54.322;18.582;2023-05-10T11:02:50;8.20;;;2.10;;
69434;SDS011;56625;54.322;18.582;2023-05-10T11:05:35;8.90;;;1.60;;
69434;SDS011;56625;54.322;18.582;2023-05-10T11:08:28;8.40;;;1.40;;
69434;SDS011;56625;54.322;18.582;2023-05-10T11:11:05;7.70;;;1.80;;
69434;SDS011;56625;54.322;18.582;2023-05-10T11:18:52;10.80;;;1.90;;
69434;SDS011;56625;54.322;18.582;2023-05-10T11:21:31;10.30;;;2.00;;
69434;SDS011;56625;54.322;18.582;2023-05-10T11:24:01;6.70;;;1.80;;
69434;SDS011;56625;54.322;18.582;2023-05-10T11:26:35;9.00;;;2.00;;
69434;SDS011;56625;54.322;18.582;2023-05-10T11:29:03;7.90;;;2.10;;
69434;SDS011;56625;54.322;18.582;2023-05-10T11:31:32;10.90;;;2.00;;
69434;SDS011;56625;54.322;18.582;2023-05-10T11:34:01;7.10;;;1.90;;
69434;SDS011;56625;54.322;18.582;2023-05-10T11:36:35;7.90;;;1.70;;
69434;SDS011;56625;54.322;18.582;2023-05-10T11:39:04;8.00;;;1.90;;
69434;SDS011;56625;54.322;18.582;2023-05-10T11:41:33;7.20;;;1.60;;
69434;SDS011;56625;54.322;18.582;2023-05-10T11:44:01;10.80;;;2.00;;
69434;SDS011;56625;54.322;18.582;2023-05-10T11:46:29;8.40;;;2.00;;
69434;SDS011;56625;54.322;18.582;2023-05-10T11:48:59;7.00;;;1.70;;
69434;SDS011;56625;54.322;18.582;2023-05-10T11:51:33;6.90;;;2.00;;
69434;SDS011;56625;54.322;18.582;2023-05-10T11:54:08;8.00;;;1.70;;
69434;SDS011;56625;54.322;18.582;2023-05-10T11:56:38;8.00;;;2.20;;
69434;SDS011;56625;54.322;18.582;2023-05-10T11:59:07;6.40;;;2.00;;
69434;SDS011;56625;54.322;18.582;2023-05-10T12:01:36;7.70;;;1.90;;
69434;SDS011;56625;54.322;18.582;2023-05-10T12:04:04;6.30;;;1.70;;
69434;SDS011;56625;54.322;18.582;2023-05-10T12:06:37;9.30;;;1.90;;
69434;SDS011;56625;54.322;18.582;2023-05-10T12:09:08;11.60;;;1.80;;
69434;SDS011;56625;54.322;18.582;2023-05-10T12:11:38;5.90;;;1.70;;
69434;SDS011;56625;54.322;18.582;2023-05-10T12:14:11;8.70;;;1.60;;
69434;SDS011;56625;54.322;18.582;2023-05-10T12:16:39;9.10;;;2.00;;
69434;SDS011;56625;54.322;18.582;2023-05-10T12:19:07;7.90;;;1.60;;
69434;SDS011;56625;54.322;18.582;2023-05-10T12:21:35;7.60;;;1.90;;
69434;SDS011;56625;54.322;18.582;2023-05-10T12:24:04;7.50;;;1.90;;
69434;SDS011;56625;54.322;18.582;2023-05-10T12:26:32;4.40;;;1.30;;
69434;SDS011;56625;54.322;18.582;2023-05-10T12:29:17;5.90;;;2.00;;
69434;SDS011;56625;54.322;18.582;2023-05-10T12:31:56;7.00;;;1.50;;
69434;SDS011;56625;54.322;18.582;2023-05-10T12:36:58;11.00;;;2.10;;
69434;SDS011;56625;54.322;18.582;2023-05-10T12:39:26;6.50;;;1.80;;
69434;SDS011;56625;54.322;18.582;2023-05-10T12:42:04;5.90;;;1.60;;
69434;SDS011;56625;54.322;18.582;2023-05-10T12:44:32;10.20;;;2.20;;
69434;SDS011;56625;54.322;18.582;2023-05-10T12:47:00;6.10;;;1.90;;
69434;SDS011;56625;54.322;18.582;2023-05-10T12:49:28;7.10;;;1.80;;
69434;SDS011;56625;54.322;18.582;2023-05-10T12:51:56;5.50;;;1.70;;
69434;SDS011;56625;54.322;18.582;2023-05-10T12:54:24;10.50;;;1.80;;
69434;SDS011;56625;54.322;18.582;2023-05-10T12:56:52;11.20;;;2.20;;
69434;SDS011;56625;54.322;18.582;2023-05-10T12:59:20;6.50;;;1.60;;
69434;SDS011;56625;54.322;18.582;2023-05-10T13:01:47;11.90;;;1.80;;
69434;SDS011;56625;54.322;18.582;2023-05-10T13:04:15;12.30;;;2.20;;
69434;SDS011;56625;54.322;18.582;2023-05-10T13:06:43;9.00;;;2.20;;
69434;SDS011;56625;54.322;18.582;2023-05-10T13:09:11;6.90;;;1.90;;
69434;SDS011;56625;54.322;18.582;2023-05-10T13:11:39;10.80;;;2.10;;
69434;SDS011;56625;54.322;18.582;2023-05-10T13:14:07;9.00;;;1.80;;
69434;SDS011;56625;54.322;18.582;2023-05-10T13:16:35;10.30;;;1.60;;
69434;SDS011;56625;54.322;18.582;2023-05-10T13:19:03;12.10;;;2.10;;
69434;SDS011;56625;54.322;18.582;2023-05-10T13:21:31;7.80;;;1.50;;
69434;SDS011;56625;54.322;18.582;2023-05-10T13:23:59;8.40;;;2.00;;
69434;SDS011;56625;54.322;18.582;2023-05-10T13:26:28;6.10;;;1.60;;
69434;SDS011;56625;54.322;18.582;2023-05-10T13:28:57;9.20;;;1.90;;
69434;SDS011;56625;54.322;18.582;2023-05-10T13:31:25;8.80;;;1.90;;
69434;SDS011;56625;54.322;18.582;2023-05-10T13:33:52;10.60;;;2.40;;
69434;SDS011;56625;54.322;18.582;2023-05-10T13:36:20;7.50;;;1.90;;
69434;SDS011;56625;54.322;18.582;2023-05-10T13:38:48;9.90;;;1.90;;
69434;SDS011;56625;54.322;18.582;2023-05-10T13:41:16;9.00;;;2.70;;
69434;SDS011;56625;54.322;18.582;2023-05-10T13:43:44;6.10;;;1.80;;
69434;SDS011;56625;54.322;18.582;2023-05-10T13:46:12;10.20;;;2.20;;
69434;SDS011;56625;54.322;18.582;2023-05-10T13:48:40;7.30;;;1.70;;
69434;SDS011;56625;54.322;18.582;2023-05-10T13:51:08;8.10;;;1.90;;
69434;SDS011;56625;54.322;18.582;2023-05-10T13:53:36;9.40;;;1.80;;
69434;SDS011;56625;54.322;18.582;2023-05-10T14:00:04;9.00;;;2.30;;
69434;SDS011;56625;54.322;18.582;2023-05-10T14:02:33;7.30;;;2.00;;
69434;SDS011;56625;54.322;18.582;2023-05-10T14:05:03;7.70;;;2.00;;
69434;SDS011;56625;54.322;18.582;2023-05-10T14:07:32;5.80;;;1.60;;
69434;SDS011;56625;54.322;18.582;2023-05-10T14:10:01;6.30;;;1.50;;
69434;SDS011;56625;54.322;18.582;2023-05-10T14:12:29;10.80;;;1.90;;
69434;SDS011;56625;54.322;18.582;2023-05-10T14:14:58;8.80;;;2.00;;
69434;SDS011;56625;54.322;18.582;2023-05-10T14:17:26;8.30;;;1.60;;
69434;SDS011;56625;54.322;18.582;2023-05-10T14:19:53;6.80;;;1.70;;
69434;SDS011;56625;54.322;18.582;2023-05-10T14:22:21;10.10;;;1.90;;
69434;SDS011;56625;54.322;18.582;2023-05-10T14:24:50;8.30;;;2.00;;
69434;SDS011;56625;54.322;18.582;2023-05-10T14:27:18;8.50;;;1.60;;
69434;SDS011;56625;54.322;18.582;2023-05-10T14:29:47;8.30;;;1.80;;
69434;SDS011;56625;54.322;18.582;2023-05-10T14:32:15;6.70;;;1.90;;
69434;SDS011;56625;54.322;18.582;2023-05-10T14:34:43;5.70;;;1.30;;
69434;SDS011;56625;54.322;18.582;2023-05-10T14:37:11;6.10;;;1.50;;
69434;SDS011;56625;54.322;18.582;2023-05-10T14:39:41;7.40;;;1.50;;
69434;SDS011;56625;54.322;18.582;2023-05-10T14:42:10;6.70;;;1.80;;
69434;SDS011;56625;54.322;18.582;2023-05-10T14:44:40;6.90;;;1.50;;
69434;SDS011;56625;54.322;18.582;2023-05-10T14:47:08;9.70;;;1.80;;
69434;SDS011;56625;54.322;18.582;2023-05-10T14:49:38;6.50;;;1.40;;
69434;SDS011;56625;54.322;18.582;2023-05-10T14:56:07;4.70;;;1.30;;
69434;SDS011;56625;54.322;18.582;2023-05-10T14:58:35;10.10;;;1.90;;
69434;SDS011;56625;54.322;18.582;2023-05-10T15:01:04;5.00;;;1.40;;
69434;SDS011;56625;54.322;18.582;2023-05-10T15:03:33;11.20;;;1.60;;
69434;SDS011;56625;54.322;18.582;2023-05-10T15:06:03;8.40;;;1.60;;
69434;SDS011;56625;54.322;18.582;2023-05-10T15:08:31;7.80;;;1.70;;
69434;SDS011;56625;54.322;18.582;2023-05-10T15:10:59;7.60;;;1.80;;
69434;SDS011;56625;54.322;18.582;2023-05-10T15:13:27;6.00;;;1.30;;
69434;SDS011;56625;54.322;18.582;2023-05-10T15:15:55;6.30;;;1.50;;
69434;SDS011;56625;54.322;18.582;2023-05-10T15:18:23;4.90;;;1.30;;
69434;SDS011;56625;54.322;18.582;2023-05-10T15:20:52;6.10;;;1.70;;
69434;SDS011;56625;54.322;18.582;2023-05-10T15:23:19;7.50;;;1.50;;
69434;SDS011;56625;54.322;18.582;2023-05-10T15:25:47;4.90;;;1.00;;
69434;SDS011;56625;54.322;18.582;2023-05-10T15:28:17;7.10;;;1.50;;
69434;SDS011;56625;54.322;18.582;2023-05-10T15:30:45;6.80;;;1.40;;
69434;SDS011;56625;54.322;18.582;2023-05-10T15:33:12;4.70;;;1.00;;
69434;SDS011;56625;54.322;18.582;2023-05-10T15:35:40;5.40;;;1.40;;